createdAt,value
2022-08-15T00:01:04.903Z,56.00
2022-08-15T00:04:02.072Z,55.79
2022-08-15T00:06:38.865Z,56.27
2022-08-15T00:09:11.723Z,56.62
2022-08-15T00:11:40.888Z,56.38
2022-08-15T00:19:13.267Z,58.21
2022-08-15T00:21:42.410Z,56.12
2022-08-15T00:24:20.877Z,57.25
2022-08-15T00:26:55.506Z,59.55
2022-08-15T00:29:38.362Z,57.55
2022-08-15T00:33:01.959Z,57.96
2022-08-15T00:34:55.275Z,59.81
2022-08-15T00:42:28.075Z,60.38
2022-08-15T00:45:07.446Z,58.98
2022-08-15T00:47:39.794Z,58.37
2022-08-15T00:50:07.494Z,58.08
2022-08-15T00:52:53.899Z,58.78
2022-08-15T00:55:21.608Z,61.22
2022-08-15T01:04:39.154Z,58.91
2022-08-15T01:07:09.482Z,58.98
2022-08-15T01:09:36.629Z,60.15
2022-08-15T01:12:14.093Z,62.10
2022-08-15T01:14:56.285Z,58.06
2022-08-15T01:17:26.425Z,57.87
2022-08-15T01:19:57.835Z,58.06
2022-08-15T01:27:44.699Z,57.49
2022-08-15T01:30:39.697Z,54.86
2022-08-15T01:33:03.656Z,58.54
2022-08-15T01:35:30.116Z,55.92
2022-08-15T01:37:58.514Z,54.20
2022-08-15T01:40:51.504Z,53.65
2022-08-15T01:43:21.348Z,53.43
2022-08-15T01:51:00.438Z,54.42
2022-08-15T01:53:38.436Z,56.18
2022-08-15T01:56:32.302Z,55.56
2022-08-15T01:58:56.862Z,61.20
2022-08-15T02:01:42.062Z,56.90
2022-08-15T02:04:08.907Z,53.83
2022-08-15T02:14:40.641Z,54.78
2022-08-15T02:17:11.373Z,54.54
2022-08-15T02:19:45.882Z,54.46
2022-08-15T02:22:26.256Z,54.81
2022-08-15T02:24:54.009Z,57.98
2022-08-15T02:27:20.184Z,55.84
2022-08-15T02:29:52.831Z,55.75
2022-08-15T02:37:23.671Z,55.11
2022-08-15T02:39:58.038Z,54.88
2022-08-15T02:42:25.979Z,57.68
2022-08-15T02:44:52.664Z,60.06
2022-08-15T02:47:23.622Z,58.22
2022-08-15T02:49:51.342Z,58.46
2022-08-15T02:52:21.759Z,57.18
2022-08-15T02:59:54.518Z,58.84
2022-08-15T03:02:30.591Z,59.50
2022-08-15T03:04:59.272Z,60.08
2022-08-15T03:07:25.120Z,60.89
2022-08-15T03:09:56.372Z,60.59
2022-08-15T03:12:31.240Z,61.58
2022-08-15T03:15:14.275Z,62.19
2022-08-15T03:22:47.463Z,64.15
2022-08-15T03:25:19.221Z,64.52
2022-08-15T03:27:57.732Z,64.11
2022-08-15T03:30:24.153Z,63.92
2022-08-15T03:32:55.540Z,64.00
2022-08-15T03:35:27.477Z,66.53
2022-08-15T03:38:00.553Z,65.58
2022-08-15T03:45:42.091Z,63.81
2022-08-15T03:48:10.090Z,63.79
2022-08-15T03:50:48.333Z,63.98
2022-08-15T03:53:15.970Z,65.29
2022-08-15T03:55:43.916Z,67.55
2022-08-15T03:58:32.703Z,65.03
2022-08-15T04:01:05.405Z,64.61
2022-08-15T04:09:04.239Z,63.22
2022-08-15T04:11:35.357Z,63.51
2022-08-15T04:14:31.647Z,64.00
2022-08-15T04:17:02.240Z,65.14
2022-08-15T04:19:46.734Z,63.68
2022-08-15T04:22:38.864Z,62.77
2022-08-15T04:29:12.897Z,66.56
2022-08-15T04:31:42.406Z,65.14
2022-08-15T04:34:48.601Z,65.31
2022-08-15T04:36:54.351Z,63.14
2022-08-15T04:39:24.431Z,64.79
2022-08-15T04:42:00.765Z,64.04
2022-08-15T04:44:29.037Z,64.77
2022-08-15T04:52:07.192Z,65.34
2022-08-15T04:54:34.642Z,65.70
2022-08-15T04:57:17.278Z,65.35
2022-08-15T05:00:04.824Z,65.19
2022-08-15T05:02:57.555Z,64.20
2022-08-15T05:05:24.066Z,64.90
2022-08-15T05:12:01.601Z,64.39
2022-08-15T05:14:50.038Z,68.97
2022-08-15T05:17:23.381Z,68.21
2022-08-15T05:19:49.922Z,64.43
2022-08-15T05:22:17.315Z,63.63
2022-08-15T05:24:43.731Z,64.62
2022-08-15T05:27:10.277Z,64.16
2022-08-15T05:34:44.458Z,64.31
2022-08-15T05:37:11.455Z,66.08
2022-08-15T05:39:39.312Z,64.07
2022-08-15T05:42:31.985Z,64.97
2022-08-15T05:45:09.483Z,63.79
2022-08-15T05:47:45.138Z,67.63
2022-08-15T05:50:28.424Z,66.53
2022-08-15T05:58:36.449Z,65.19
2022-08-15T06:01:06.468Z,66.47
2022-08-15T06:03:39.767Z,65.33
2022-08-15T06:06:26.553Z,65.13
2022-08-15T06:09:01.736Z,65.74
2022-08-15T06:11:36.245Z,66.70
2022-08-15T06:14:17.373Z,65.90
2022-08-15T06:21:57.492Z,67.89
2022-08-15T06:24:28.769Z,67.65
2022-08-15T06:29:44.831Z,67.45
2022-08-15T06:32:24.689Z,68.91
2022-08-15T06:35:03.646Z,67.76
2022-08-15T06:45:30.835Z,69.05
2022-08-15T06:48:01.961Z,67.44
2022-08-15T06:50:51.423Z,66.29
2022-08-15T06:53:22.870Z,67.07
2022-08-15T06:55:54.948Z,65.66
2022-08-15T06:58:53.335Z,66.17
2022-08-15T07:02:12.377Z,65.29
2022-08-15T07:09:35.888Z,64.83
2022-08-15T07:12:35.158Z,64.27
2022-08-15T07:15:10.723Z,64.34
2022-08-15T07:17:44.760Z,63.35
2022-08-15T07:22:58.119Z,64.02
2022-08-15T07:25:30.428Z,65.08
2022-08-15T07:33:00.493Z,65.79
2022-08-15T07:35:31.021Z,66.12
2022-08-15T07:38:21.768Z,68.22
2022-08-15T07:40:56.285Z,66.11
2022-08-15T07:43:33.764Z,68.24
2022-08-15T07:46:22.997Z,67.91
2022-08-15T07:48:58.247Z,67.80
2022-08-15T07:56:45.439Z,69.39
2022-08-15T07:59:23.927Z,69.03
2022-08-15T08:02:09.622Z,69.18
2022-08-15T08:05:01.719Z,70.54
2022-08-15T08:07:34.654Z,69.15
2022-08-15T08:10:23.411Z,69.84
2022-08-15T08:16:39.090Z,71.78
2022-08-15T08:19:12.786Z,73.73
2022-08-15T08:21:50.201Z,76.43
2022-08-15T08:24:27.826Z,75.87
2022-08-15T08:27:00.208Z,80.69
2022-08-15T08:29:35.968Z,76.90
2022-08-15T08:32:21.790Z,81.59
2022-08-15T08:40:06.553Z,80.12
2022-08-15T08:42:43.641Z,79.21
2022-08-15T08:45:20.813Z,77.41
2022-08-15T08:48:03.468Z,77.78
2022-08-15T08:50:36.930Z,75.09
2022-08-15T08:53:13.416Z,74.20
2022-08-15T08:58:36.027Z,72.95
2022-08-15T09:01:14.860Z,70.51
2022-08-15T09:03:44.816Z,68.75
2022-08-15T09:06:26.488Z,69.07
2022-08-15T09:08:58.056Z,69.42
2022-08-15T09:11:30.557Z,69.28
2022-08-15T09:14:04.601Z,69.24
2022-08-15T09:21:38.185Z,69.32
2022-08-15T09:24:04.936Z,68.36
2022-08-15T09:26:59.068Z,69.37
2022-08-15T09:29:29.610Z,68.55
2022-08-15T09:32:31.368Z,69.62
2022-08-15T09:35:23.485Z,68.64
2022-08-15T09:46:07.865Z,68.27
2022-08-15T09:49:08.368Z,66.56
2022-08-15T09:51:50.596Z,69.45
2022-08-15T09:54:25.251Z,68.54
2022-08-15T09:57:20.122Z,68.36
2022-08-15T09:59:51.304Z,69.85
2022-08-15T10:10:15.638Z,69.34
2022-08-15T10:13:09.845Z,69.80
2022-08-15T10:15:41.505Z,67.12
2022-08-15T10:18:08.305Z,66.87
2022-08-15T10:20:52.607Z,64.50
2022-08-15T10:23:25.160Z,63.78
2022-08-15T10:29:01.395Z,59.80
2022-08-15T10:31:52.690Z,59.35
2022-08-15T10:34:32.654Z,58.02
2022-08-15T10:37:24.628Z,56.95
2022-08-15T10:40:12.958Z,54.11
2022-08-15T10:42:50.087Z,55.21
2022-08-15T10:48:43.928Z,55.46
2022-08-15T10:51:21.869Z,54.97
2022-08-15T10:54:00.017Z,53.38
2022-08-15T10:57:05.815Z,52.26
2022-08-15T10:59:20.297Z,48.78
2022-08-15T11:01:48.923Z,43.34
2022-08-15T11:11:39.608Z,44.96
2022-08-15T11:14:08.505Z,46.13
2022-08-15T11:16:50.464Z,47.42
2022-08-15T11:20:03.939Z,49.31
2022-08-15T11:22:09.550Z,53.29
2022-08-15T11:24:42.241Z,52.94
2022-08-15T11:27:13.053Z,54.37
2022-08-15T11:34:56.703Z,51.20
2022-08-15T11:37:26.070Z,51.25
2022-08-15T11:39:59.514Z,51.23
2022-08-15T11:42:29.637Z,51.66
2022-08-15T11:45:00.705Z,51.66
2022-08-15T11:47:31.402Z,51.06
2022-08-15T11:50:02.800Z,51.53
2022-08-15T11:57:44.505Z,50.97
2022-08-15T12:00:25.296Z,51.37
2022-08-15T12:03:02.972Z,52.32
2022-08-15T12:05:42.270Z,53.14
2022-08-15T12:11:19.590Z,52.47
2022-08-15T12:13:24.292Z,53.32
2022-08-15T12:17:03.980Z,53.89
2022-08-15T12:20:25.297Z,53.91
2022-08-15T12:22:46.093Z,54.81
2022-08-15T12:25:22.265Z,54.66
2022-08-15T12:28:04.013Z,55.56
2022-08-15T12:30:49.730Z,57.56
2022-08-15T12:37:03.729Z,58.28
2022-08-15T12:39:34.367Z,59.14
2022-08-15T12:42:55.971Z,58.93
2022-08-15T12:44:49.290Z,61.80
2022-08-15T12:47:15.460Z,62.07
2022-08-15T12:49:47.442Z,59.10
2022-08-15T12:52:18.968Z,57.58
2022-08-15T12:59:52.305Z,59.64
2022-08-15T13:02:48.257Z,60.42
2022-08-15T13:05:14.464Z,63.57
2022-08-15T13:08:03.723Z,64.45
2022-08-15T13:11:00.552Z,60.64
2022-08-15T13:13:12.761Z,64.91
2022-08-15T13:15:39.776Z,71.22
2022-08-15T13:23:09.365Z,74.77
2022-08-15T13:25:35.577Z,69.69
2022-08-15T13:28:06.091Z,68.77
2022-08-15T13:30:36.415Z,74.68
2022-08-15T13:33:06.411Z,69.85
2022-08-15T13:35:58.135Z,69.05
2022-08-15T13:38:23.297Z,72.78
2022-08-15T13:45:58.995Z,56.52
2022-08-15T13:48:37.006Z,56.37
2022-08-15T13:51:11.229Z,56.02
2022-08-15T13:53:55.158Z,53.47
2022-08-15T13:56:32.230Z,53.07
2022-08-15T13:58:59.416Z,55.63
2022-08-15T14:01:26.511Z,54.11
2022-08-15T14:09:18.563Z,51.37
2022-08-15T14:11:57.058Z,54.71
2022-08-15T14:14:34.777Z,60.22
2022-08-15T14:17:02.584Z,60.06
2022-08-15T14:20:01.903Z,58.44
2022-08-15T14:22:16.863Z,57.70
2022-08-15T14:25:00.204Z,55.27
2022-08-15T14:35:24.236Z,58.30
2022-08-15T14:37:51.691Z,56.93
2022-08-15T14:40:22.669Z,58.48
2022-08-15T14:42:50.242Z,58.64
2022-08-15T14:45:17.042Z,56.79
2022-08-15T14:47:43.970Z,57.38
2022-08-15T14:55:17.781Z,56.44
2022-08-15T14:57:59.212Z,53.33
2022-08-15T15:00:31.647Z,51.39
2022-08-15T15:03:00.177Z,54.68
2022-08-15T15:06:05.317Z,52.71
2022-08-15T15:08:19.182Z,50.67
2022-08-15T15:10:47.647Z,51.82
2022-08-15T15:18:45.762Z,51.85
2022-08-15T15:21:06.787Z,52.35
2022-08-15T15:23:33.844Z,52.23
2022-08-15T15:26:03.790Z,52.17
2022-08-15T15:28:41.263Z,55.03
2022-08-15T15:31:08.994Z,52.00
2022-08-15T15:33:37.076Z,50.56
2022-08-15T15:41:00.039Z,53.78
2022-08-15T15:43:27.943Z,52.33
2022-08-15T15:45:54.143Z,52.18
2022-08-15T15:48:28.341Z,50.82
2022-08-15T15:50:55.174Z,52.86
2022-08-15T15:53:24.729Z,50.61
2022-08-15T15:55:53.499Z,50.26
2022-08-15T16:01:32.099Z,49.69
2022-08-15T16:04:01.929Z,51.28
2022-08-15T16:07:03.552Z,56.48
2022-08-15T16:09:21.685Z,54.48
2022-08-15T16:11:55.531Z,51.79
2022-08-15T16:14:44.081Z,52.27
2022-08-15T16:17:19.166Z,52.23
2022-08-15T16:23:47.712Z,55.72
2022-08-15T16:26:27.605Z,53.24
2022-08-15T16:29:00.384Z,55.29
2022-08-15T16:31:34.997Z,54.01
2022-08-15T16:34:08.233Z,54.86
2022-08-15T16:36:45.309Z,54.91
2022-08-15T16:46:44.573Z,55.03
2022-08-15T16:49:25.241Z,54.98
2022-08-15T16:52:09.486Z,56.60
2022-08-15T16:54:52.922Z,57.62
2022-08-15T16:57:26.629Z,58.32
2022-08-15T17:00:09.747Z,57.66
2022-08-15T17:08:07.218Z,55.06
2022-08-15T17:10:46.238Z,56.02
2022-08-15T17:14:02.382Z,56.09
2022-08-15T17:16:33.174Z,56.36
2022-08-15T17:19:06.550Z,57.55
2022-08-15T17:21:43.805Z,57.87
2022-08-15T17:31:42.026Z,59.92
2022-08-15T17:34:40.033Z,61.81
2022-08-15T17:37:00.251Z,60.76
2022-08-15T17:39:35.615Z,60.30
2022-08-15T17:42:03.073Z,61.68
2022-08-15T17:44:51.145Z,60.63
2022-08-15T17:50:48.833Z,61.87
2022-08-15T17:53:09.751Z,62.63
2022-08-15T17:55:57.869Z,62.00
2022-08-15T17:58:32.754Z,61.88
2022-08-15T18:00:59.823Z,62.23
2022-08-15T18:03:27.306Z,63.35
2022-08-15T18:06:04.662Z,64.00
2022-08-15T18:13:39.786Z,67.40
2022-08-15T18:16:25.722Z,66.10
2022-08-15T18:19:10.400Z,67.51
2022-08-15T18:21:55.231Z,70.10
2022-08-15T18:24:49.903Z,67.63
2022-08-15T18:27:20.795Z,70.50
2022-08-15T18:29:58.843Z,70.61
2022-08-15T18:37:35.749Z,73.57
2022-08-15T18:40:22.385Z,72.71
2022-08-15T18:43:05.582Z,75.35
2022-08-15T18:45:38.185Z,74.15
2022-08-15T18:48:35.109Z,75.19
2022-08-15T18:51:09.976Z,76.94
2022-08-15T19:00:07.004Z,77.79
2022-08-15T19:02:37.887Z,77.01
2022-08-15T19:05:14.069Z,77.47
2022-08-15T19:07:50.094Z,77.13
2022-08-15T19:10:22.354Z,78.03
2022-08-15T19:12:58.454Z,76.21
2022-08-15T19:15:38.299Z,77.08
2022-08-15T19:23:08.455Z,74.17
2022-08-15T19:25:45.579Z,74.12
2022-08-15T19:28:41.640Z,73.91
2022-08-15T19:31:24.210Z,74.51
2022-08-15T19:34:12.932Z,76.41
2022-08-15T19:36:50.380Z,73.52
2022-08-15T19:42:05.241Z,73.84
2022-08-15T19:44:40.262Z,73.17
2022-08-15T19:47:20.145Z,74.88
2022-08-15T19:50:04.984Z,76.64
2022-08-15T19:52:44.287Z,74.69
2022-08-15T19:55:39.593Z,76.42
2022-08-15T19:58:29.813Z,76.22
2022-08-15T20:06:08.513Z,77.46
2022-08-15T20:08:44.496Z,78.58
2022-08-15T20:11:27.093Z,79.28
2022-08-15T20:14:46.075Z,76.16
2022-08-15T20:16:59.777Z,77.90
2022-08-15T20:19:48.738Z,78.60
2022-08-15T20:22:34.945Z,78.88
2022-08-15T20:30:20.450Z,80.28
2022-08-15T20:32:54.176Z,80.30
2022-08-15T20:35:23.764Z,80.38
2022-08-15T20:37:54.151Z,81.52
2022-08-15T20:40:25.100Z,81.29
2022-08-15T20:42:56.987Z,82.20
2022-08-15T20:45:28.566Z,81.67
2022-08-15T20:53:03.725Z,83.80
2022-08-15T20:55:37.200Z,82.66
2022-08-15T20:58:05.277Z,84.75
2022-08-15T21:01:11.343Z,82.89
2022-08-15T21:04:02.205Z,81.71
2022-08-15T21:06:37.237Z,82.35
2022-08-15T21:17:32.471Z,83.32
2022-08-15T21:20:18.627Z,82.83
2022-08-15T21:22:49.541Z,82.14
2022-08-15T21:25:42.832Z,81.79
2022-08-15T21:28:32.294Z,82.61
2022-08-15T21:31:31.212Z,82.93
2022-08-15T21:39:54.113Z,84.46
2022-08-15T21:42:47.204Z,84.88
2022-08-15T21:45:35.543Z,85.67
2022-08-15T21:48:48.079Z,88.21
2022-08-15T21:51:36.261Z,88.50
2022-08-15T21:54:18.490Z,88.17
2022-08-15T22:01:56.791Z,92.38
2022-08-15T22:04:30.268Z,93.40
2022-08-15T22:07:01.239Z,95.95
2022-08-15T22:09:37.935Z,95.69
2022-08-15T22:12:13.234Z,98.11
2022-08-15T22:14:39.518Z,97.72
2022-08-15T22:17:09.285Z,95.83
2022-08-15T22:24:40.650Z,100.00
2022-08-15T22:27:06.783Z,100.00
2022-08-15T22:29:49.077Z,100.00
2022-08-15T22:32:32.470Z,100.00
2022-08-15T22:35:05.510Z,99.16
2022-08-15T22:37:33.696Z,100.00
2022-08-15T22:40:01.794Z,100.00
2022-08-15T22:47:36.886Z,100.00
2022-08-15T22:50:11.384Z,97.56
2022-08-15T22:52:38.627Z,98.99
2022-08-15T22:55:34.351Z,97.86
2022-08-15T22:58:10.416Z,97.20
2022-08-15T23:00:45.322Z,96.57
2022-08-15T23:03:13.722Z,97.11
2022-08-15T23:10:49.103Z,97.42
2022-08-15T23:13:20.852Z,98.84
2022-08-15T23:15:59.310Z,100.00
2022-08-15T23:18:31.436Z,98.46
2022-08-15T23:20:57.872Z,100.00
2022-08-15T23:23:26.462Z,100.00
2022-08-15T23:25:55.315Z,100.00
2022-08-15T23:33:28.145Z,100.00
2022-08-15T23:36:13.869Z,100.00
2022-08-15T23:39:01.644Z,100.00
2022-08-15T23:41:32.391Z,99.42
2022-08-15T23:44:03.003Z,100.00
2022-08-15T23:46:37.627Z,100.00
2022-08-15T23:49:04.775Z,100.00
2022-08-15T23:56:43.775Z,100.00
2022-08-15T23:59:11.629Z,99.91
